Time;durP1;ratioP1;P1;durP2;ratioP2;P2;SDS_P1;SDS_P2;PMS_P1;PMS_P2;Temp;Humidity;BMP_temperature;BMP_pressure;BME280_temperature;BME280_humidity;BME280_pressure;Samples;Min_cycle;Max_cycle;Signal;HPM_P1;HPM_P2
2022/07/16 00:03:09;;;;;;;7.00;5.20;;;;;;;24.34;53.18;98693.06;5141859;27;20388;-92
2022/07/16 00:05:35;;;;;;;6.60;4.80;;;;;;;24.34;53.40;98698.50;5117789;28;20048;-94
2022/07/16 00:08:01;;;;;;;8.77;5.60;;;;;;;24.22;53.14;98669.63;5115967;27;20040;-95
2022/07/16 00:10:27;;;;;;;7.25;5.30;;;;;;;24.25;53.30;98683.84;5115492;27;20036;-93
2022/07/16 00:12:53;;;;;;;7.30;4.82;;;;;;;24.16;53.43;98662.91;5115439;28;20046;-92
2022/07/16 00:15:19;;;;;;;6.57;4.68;;;;;;;24.23;53.26;98684.97;5122707;28;20126;-94
2022/07/16 00:17:44;;;;;;;5.88;5.00;;;;;;;24.14;53.58;98684.75;5114899;28;20067;-93
2022/07/16 00:20:12;;;;;;;7.93;5.03;;;;;;;24.14;53.39;98683.91;5121614;27;20419;-93
2022/07/16 00:22:38;;;;;;;6.35;5.00;;;;;;;24.20;53.53;98683.34;5120788;28;20396;-94
2022/07/16 00:25:05;;;;;;;5.72;4.65;;;;;;;24.16;53.83;98687.34;5122888;28;20051;-92
2022/07/16 00:27:31;;;;;;;7.50;4.53;;;;;;;24.06;53.95;98659.22;5117965;28;20043;-94
2022/07/16 00:29:57;;;;;;;7.13;4.80;;;;;;;23.98;54.20;98663.47;5116598;28;20042;-93
2022/07/16 00:32:22;;;;;;;6.72;4.90;;;;;;;24.18;54.39;98696.19;5119514;28;20054;-94
2022/07/16 00:34:48;;;;;;;7.40;4.93;;;;;;;24.12;54.71;98686.72;5115588;28;20550;-93
2022/07/16 00:37:16;;;;;;;5.20;4.47;;;;;;;23.97;54.54;98659.00;5115910;27;20619;-92
2022/07/16 00:39:41;;;;;;;7.03;4.65;;;;;;;24.04;54.67;98685.66;5114462;28;20508;-93
2022/07/16 00:42:07;;;;;;;7.22;4.65;;;;;;;23.87;54.94;98673.47;5119765;28;20080;-95
2022/07/16 00:44:33;;;;;;;7.25;5.03;;;;;;;23.89;54.97;98682.34;5117939;28;20048;-94
2022/07/16 00:46:59;;;;;;;5.35;4.75;;;;;;;23.91;55.01;98697.53;5120512;28;20436;-94
2022/07/16 00:49:25;;;;;;;6.10;5.00;;;;;;;23.88;54.53;98681.50;5118039;27;20146;-93
2022/07/16 00:51:52;;;;;;;5.53;4.85;;;;;;;23.93;53.96;98690.13;5116540;28;20374;-94
2022/07/16 00:54:20;;;;;;;5.95;4.68;;;;;;;23.81;54.12;98660.41;5115869;27;20042;-93
2022/07/16 00:56:47;;;;;;;5.40;4.80;;;;;;;23.99;54.17;98699.63;5117907;28;20871;-93
2022/07/16 00:59:13;;;;;;;8.85;4.95;;;;;;;23.84;54.33;98690.03;5115452;28;20371;-94
2022/07/16 01:01:39;;;;;;;6.50;5.03;;;;;;;23.77;54.94;98687.81;5116635;27;20044;-95
2022/07/16 01:04:07;;;;;;;6.78;4.72;;;;;;;23.62;54.78;98670.06;5121317;28;20058;-92
2022/07/16 01:06:33;;;;;;;10.20;5.00;;;;;;;23.67;54.97;98696.81;5114913;28;20393;-91
2022/07/16 01:08:59;;;;;;;6.07;4.63;;;;;;;23.50;55.37;98684.63;5116637;27;20048;-92
2022/07/16 01:11:26;;;;;;;6.00;4.97;;;;;;;23.49;55.93;98697.34;5114060;28;20063;-94
2022/07/16 01:13:52;;;;;;;6.70;5.05;;;;;;;23.34;56.18;98671.47;5107315;28;20051;-93
2022/07/16 01:16:19;;;;;;;5.78;4.95;;;;;;;23.30;56.79;98689.81;5099333;28;20036;-94
2022/07/16 01:18:46;;;;;;;6.10;5.07;;;;;;;23.05;56.94;98669.25;5106697;28;20570;-93
2022/07/16 01:21:13;;;;;;;5.50;4.70;;;;;;;22.95;57.04;98669.06;5106402;28;20055;-93
2022/07/16 01:23:42;;;;;;;6.40;4.75;;;;;;;22.85;57.79;98664.50;5103430;28;20062;-93
2022/07/16 01:26:08;;;;;;;;;;;;;;;22.94;58.42;98693.59;5105369;28;20150;-94
2022/07/16 01:28:33;;;;;;;5.93;4.90;;;;;;;22.61;58.82;98657.31;5107283;28;20385;-93
2022/07/16 01:31:00;;;;;;;5.25;4.75;;;;;;;22.62;59.25;98678.03;5105860;28;20046;-95
2022/07/16 01:33:29;;;;;;;5.93;4.82;;;;;;;22.54;60.41;98699.44;5104657;28;20043;-93
2022/07/16 01:35:57;;;;;;;7.68;5.18;;;;;;;22.34;60.50;98680.16;5102234;28;20044;-93
2022/07/16 01:38:23;;;;;;;7.30;4.63;;;;;;;22.13;60.94;98657.41;5103567;28;20067;-93
2022/07/16 01:40:51;;;;;;;8.43;5.13;;;;;;;22.23;62.07;98690.09;5105118;28;20070;-93
2022/07/16 01:43:21;;;;;;;7.70;5.33;;;;;;;21.96;61.75;98653.25;5109364;28;20048;-94
2022/07/16 01:45:47;;;;;;;8.05;5.55;;;;;;;22.00;61.34;98654.75;5104657;28;20040;-94
2022/07/16 01:48:14;;;;;;;8.23;5.65;;;;;;;21.99;62.00;98657.56;5101721;28;20044;-94
2022/07/16 01:50:42;;;;;;;8.82;5.47;;;;;;;21.93;62.54;98672.47;5100960;28;20138;-94
2022/07/16 01:53:08;;;;;;;7.80;5.57;;;;;;;21.84;62.77;98660.47;5107438;28;20036;-92
2022/07/16 01:55:34;;;;;;;7.30;5.90;;;;;;;21.78;63.19;98655.53;5103535;28;20564;-93
2022/07/16 01:58:02;;;;;;;6.85;5.38;;;;;;;21.74;63.93;98671.13;5107051;28;20082;-94
2022/07/16 02:00:29;;;;;;;8.77;5.57;;;;;;;21.65;64.32;98665.53;5103457;28;20069;-93
2022/07/16 02:02:54;;;;;;;6.63;5.40;;;;;;;21.70;64.11;98688.56;5103430;28;20048;-95
2022/07/16 02:05:20;;;;;;;7.97;5.63;;;;;;;21.49;64.60;98663.97;5101120;28;20055;-95
2022/07/16 02:07:46;;;;;;;8.15;5.43;;;;;;;21.63;64.25;98687.28;5101734;28;20028;-94
2022/07/16 02:10:12;;;;;;;8.00;5.70;;;;;;;21.47;64.38;98671.34;5109148;28;20040;-93
2022/07/16 02:12:38;;;;;;;8.07;5.45;;;;;;;21.45;64.22;98667.88;5102431;28;20055;-94
2022/07/16 02:15:07;;;;;;;7.63;5.93;;;;;;;21.30;64.93;98661.72;5103631;28;20420;-94
2022/07/16 02:17:33;;;;;;;8.10;5.90;;;;;;;21.19;65.29;98647.22;5105854;28;20032;-94
2022/07/16 02:20:00;;;;;;;7.95;6.05;;;;;;;21.23;65.50;98673.97;5102348;28;20035;-93
2022/07/16 02:22:26;;;;;;;7.50;5.97;;;;;;;21.11;65.74;98664.00;5109765;28;20031;-93
2022/07/16 02:24:52;;;;;;;7.47;6.00;;;;;;;20.99;66.81;98657.66;5098656;28;20062;-93
2022/07/16 02:27:18;;;;;;;6.55;5.75;;;;;;;20.97;67.08;98656.91;5103743;28;20040;-92
2022/07/16 02:29:44;;;;;;;7.80;5.85;;;;;;;20.97;67.34;98659.59;5099748;28;20089;-94
2022/07/16 02:32:11;;;;;;;10.48;6.57;;;;;;;21.02;67.44;98664.69;5103191;28;20135;-93
2022/07/16 02:34:37;;;;;;;6.57;5.85;;;;;;;21.13;68.01;98695.38;5099870;28;20464;-94
2022/07/16 02:37:03;;;;;;;6.38;5.60;;;;;;;21.02;67.98;98670.94;5097399;28;20134;-93
2022/07/16 02:39:29;;;;;;;8.00;5.80;;;;;;;21.08;67.99;98675.06;5105443;28;20067;-95
2022/07/16 02:41:55;;;;;;;7.00;5.68;;;;;;;21.08;67.56;98675.91;5098169;28;20130;-92
2022/07/16 02:44:20;;;;;;;8.65;6.63;;;;;;;21.13;68.30;98692.66;5099547;28;20461;-94
2022/07/16 02:46:46;;;;;;;7.70;6.22;;;;;;;21.04;68.30;98682.53;5105087;28;20067;-93
2022/07/16 02:49:13;;;;;;;6.72;6.03;;;;;;;21.01;68.44;98684.56;5101521;28;20046;-94
2022/07/16 02:51:39;;;;;;;8.43;5.97;;;;;;;21.00;68.54;98685.56;5105344;28;20039;-93
2022/07/16 02:54:05;;;;;;;7.85;6.03;;;;;;;20.84;68.20;98661.44;5100323;28;20153;-93
2022/07/16 02:56:31;;;;;;;9.35;6.35;;;;;;;20.72;68.64;98666.75;5104499;28;20051;-93
2022/07/16 02:58:58;;;;;;;8.38;6.10;;;;;;;20.66;68.82;98669.00;5103253;28;20044;-94
2022/07/16 03:01:23;;;;;;;8.90;6.72;;;;;;;20.67;69.54;98681.56;5098872;28;20060;-93
2022/07/16 03:03:49;;;;;;;10.25;6.70;;;;;;;20.62;69.44;98668.34;5104538;28;20390;-93
2022/07/16 03:06:17;;;;;;;8.23;6.07;;;;;;;20.62;70.29;98670.19;5103117;28;20039;-94
2022/07/16 03:08:43;;;;;;;10.30;7.32;;;;;;;20.58;69.38;98664.16;5104523;28;20096;-94
2022/07/16 03:11:10;;;;;;;7.78;6.85;;;;;;;20.70;70.29;98693.00;5104504;28;20054;-94
2022/07/16 03:13:36;;;;;;;8.90;6.65;;;;;;;20.56;70.42;98667.88;5110462;28;20068;-93
2022/07/16 03:16:02;;;;;;;10.93;6.95;;;;;;;20.46;70.42;98668.53;5097552;28;20040;-93
2022/07/16 03:18:28;;;;;;;12.70;7.03;;;;;;;20.44;70.63;98664.22;5095008;28;20098;-93
2022/07/16 03:20:53;;;;;;;9.82;6.57;;;;;;;20.39;70.82;98661.81;5097169;28;20028;-94
2022/07/16 03:23:21;;;;;;;13.73;7.28;;;;;;;20.37;71.01;98666.47;5096250;28;20133;-94
2022/07/16 03:25:47;;;;;;;10.45;6.72;;;;;;;20.33;71.23;98664.09;5094982;28;20044;-93
2022/07/16 03:28:13;;;;;;;9.23;6.65;;;;;;;20.53;71.36;98696.84;5095723;28;20043;-93
2022/07/16 03:30:39;;;;;;;9.60;6.68;;;;;;;20.33;71.49;98667.66;5094143;28;20040;-93
2022/07/16 03:33:06;;;;;;;9.63;6.88;;;;;;;20.48;71.58;98690.91;5095581;28;20040;-92
2022/07/16 03:35:32;;;;;;;11.40;6.93;;;;;;;20.30;71.74;98662.47;5093752;28;20428;-94
2022/07/16 03:40:58;;;;;;;8.38;6.75;;;;;;;20.39;71.80;98680.72;5145822;27;20382;-93
2022/07/16 03:43:24;;;;;;;8.48;6.20;;;;;;;20.40;71.87;98687.00;5146689;27;20125;-94
2022/07/16 03:45:50;;;;;;;7.47;6.00;;;;;;;20.33;71.86;98677.59;5146841;27;20127;-93
2022/07/16 03:48:16;;;;;;;9.63;6.75;;;;;;;20.33;72.23;98685.69;5142260;27;20039;-93
2022/07/16 03:50:42;;;;;;;9.32;6.18;;;;;;;20.28;71.95;98680.59;5146131;27;20441;-95
2022/07/16 03:53:08;;;;;;;8.95;7.13;;;;;;;20.27;71.92;98679.72;5145412;27;20035;-93
2022/07/16 03:55:33;;;;;;;9.55;6.65;;;;;;;20.25;71.56;98673.56;5145537;27;20043;-93
2022/07/16 03:58:01;;;;;;;10.32;6.63;;;;;;;20.28;71.62;98677.91;5146560;27;20047;-92
2022/07/16 04:00:27;;;;;;;7.97;7.00;;;;;;;20.27;71.40;98693.22;5143590;27;20035;-94
2022/07/16 04:02:53;;;;;;;8.10;6.45;;;;;;;20.19;71.93;98692.91;5147412;27;20046;-95
2022/07/16 04:05:18;;;;;;;8.40;6.95;;;;;;;20.21;71.45;98695.47;5144708;27;20038;-96
2022/07/16 04:07:44;;;;;;;10.50;6.88;;;;;;;20.06;71.92;98682.06;5143209;27;20039;-94
2022/07/16 04:10:10;;;;;;;7.55;6.70;;;;;;;20.18;71.95;98712.75;5147179;27;20031;-93
2022/07/16 04:12:36;;;;;;;8.07;6.93;;;;;;;20.09;71.62;98708.84;5142207;27;20027;-93
2022/07/16 04:15:04;;;;;;;8.18;6.35;;;;;;;20.19;71.87;98719.00;5143040;27;20046;-93
2022/07/16 04:17:30;;;;;;;7.77;6.53;;;;;;;20.05;71.80;98691.13;5142532;27;20035;-93
2022/07/16 04:19:56;;;;;;;9.18;6.75;;;;;;;20.24;71.66;98722.28;5146858;27;20079;-94
2022/07/16 04:22:22;;;;;;;7.97;6.22;;;;;;;20.26;71.51;98713.09;5144405;27;20099;-93
2022/07/16 04:24:47;;;;;;;7.18;6.45;;;;;;;20.11;71.84;98701.50;5141016;27;20121;-94
2022/07/16 04:27:13;;;;;;;7.32;6.35;;;;;;;20.28;72.17;98716.56;5142053;27;20504;-94
2022/07/16 04:29:39;;;;;;;6.80;6.10;;;;;;;20.19;72.00;98698.31;5145353;27;20125;-92
2022/07/16 04:32:07;;;;;;;8.85;5.82;;;;;;;20.39;71.75;98723.09;5149411;27;20080;-94
2022/07/16 04:34:33;;;;;;;9.40;6.47;;;;;;;20.37;72.15;98720.47;5140434;27;20058;-95
2022/07/16 04:36:58;;;;;;;7.22;6.00;;;;;;;20.37;72.10;98708.81;5139925;27;20123;-93
2022/07/16 04:39:24;;;;;;;7.82;6.38;;;;;;;20.45;71.32;98728.94;5142255;27;20047;-93
2022/07/16 04:41:50;;;;;;;8.70;6.40;;;;;;;20.33;71.32;98691.09;5136702;27;20047;-94
2022/07/16 04:44:16;;;;;;;9.13;6.25;;;;;;;20.45;71.25;98710.03;5137650;27;20488;-93
2022/07/16 04:46:42;;;;;;;8.48;6.53;;;;;;;20.51;71.16;98722.22;5144322;27;20063;-93
2022/07/16 04:49:09;;;;;;;7.50;6.25;;;;;;;20.42;71.10;98694.00;5139993;27;20407;-95
2022/07/16 04:51:35;;;;;;;7.65;6.55;;;;;;;20.49;71.34;98702.56;5129244;27;20059;-93
2022/07/16 04:54:01;;;;;;;9.20;6.70;;;;;;;20.49;71.15;98689.06;5134294;27;20437;-93
2022/07/16 04:56:26;;;;;;;10.45;7.25;;;;;;;20.58;70.92;98707.38;5132988;27;20078;-94
2022/07/16 04:58:52;;;;;;;7.75;6.65;;;;;;;20.58;70.28;98706.50;5126492;27;20508;-95
2022/07/16 05:01:18;;;;;;;7.88;6.55;;;;;;;20.55;70.48;98698.59;5128808;27;20051;-94
2022/07/16 05:03:44;;;;;;;8.38;6.03;;;;;;;20.68;70.42;98715.69;5133007;27;20452;-93
2022/07/16 05:06:11;;;;;;;7.75;6.30;;;;;;;20.90;66.98;98715.91;5132819;27;20043;-95
2022/07/16 05:08:37;;;;;;;6.75;5.90;;;;;;;21.19;66.80;98725.63;5125618;27;20042;-94
2022/07/16 05:11:02;;;;;;;7.30;5.35;;;;;;;21.80;63.94;98707.69;5128990;27;20075;-93
2022/07/16 05:13:28;;;;;;;5.90;5.28;;;;;;;22.55;59.85;98715.59;5131418;27;20047;-94
2022/07/16 05:15:54;;;;;;;8.30;5.35;;;;;;;22.99;57.00;98696.81;5134852;27;20039;-95
2022/07/16 05:18:20;;;;;;;5.88;4.95;;;;;;;23.47;56.33;98722.88;5122071;27;20549;-94
2022/07/16 05:20:46;;;;;;;7.13;5.18;;;;;;;23.83;55.28;98694.59;5120585;27;20036;-94
2022/07/16 05:23:13;;;;;;;7.28;5.05;;;;;;;24.29;54.73;98709.75;5137019;27;20066;-93
2022/07/16 05:25:39;;;;;;;7.47;5.40;;;;;;;24.65;52.68;98721.22;5128990;27;20031;-94
2022/07/16 05:28:05;;;;;;;9.68;5.30;;;;;;;24.85;52.09;98721.38;5126217;27;20144;-93
2022/07/16 05:30:30;;;;;;;6.95;4.90;;;;;;;24.95;51.11;98708.69;5122460;27;20381;-93
2022/07/16 05:32:56;;;;;;;7.65;5.18;;;;;;;25.13;50.81;98708.94;5123724;27;20039;-94
2022/07/16 05:35:22;;;;;;;6.53;4.95;;;;;;;25.00;50.50;98700.97;5135442;27;20068;-96
2022/07/16 05:37:48;;;;;;;6.30;4.72;;;;;;;24.76;51.37;98703.97;5134741;27;20053;-94
2022/07/16 05:40:15;;;;;;;6.50;4.90;;;;;;;24.70;51.35;98715.38;5132641;27;20114;-96
2022/07/16 05:42:41;;;;;;;6.53;4.60;;;;;;;24.92;50.68;98712.53;5126213;27;20100;-93
2022/07/16 05:45:08;;;;;;;5.88;4.47;;;;;;;25.20;50.06;98723.78;5126135;27;20036;-94
2022/07/16 05:47:34;;;;;;;7.35;4.55;;;;;;;25.38;49.19;98719.41;5130571;27;20066;-94
2022/07/16 05:50:00;;;;;;;7.63;4.75;;;;;;;25.52;48.86;98723.59;5127753;27;20492;-93
2022/07/16 05:52:26;;;;;;;6.85;4.63;;;;;;;25.77;48.59;98722.25;5126010;27;20392;-93
2022/07/16 05:54:52;;;;;;;6.88;4.93;;;;;;;25.98;48.30;98733.09;5131675;27;20047;-94
2022/07/16 05:57:19;;;;;;;6.22;4.93;;;;;;;25.99;48.08;98729.38;5126151;27;20031;-94
2022/07/16 05:59:45;;;;;;;6.05;4.90;;;;;;;26.07;47.62;98733.25;5131076;27;20031;-93
2022/07/16 06:02:10;;;;;;;10.65;5.03;;;;;;;26.17;47.26;98720.50;5130446;27;20046;-94
2022/07/16 06:04:36;;;;;;;7.03;4.93;;;;;;;26.27;47.63;98718.66;5125378;27;20063;-93
2022/07/16 06:07:02;;;;;;;7.15;4.60;;;;;;;26.43;47.34;98735.28;5125085;27;20494;-93
2022/07/16 06:09:28;;;;;;;7.18;4.78;;;;;;;26.36;47.51;98693.25;5130422;27;20043;-96
2022/07/16 06:11:54;;;;;;;6.63;4.75;;;;;;;26.09;47.37;98721.22;5123535;27;20043;-96
2022/07/16 06:14:21;;;;;;;5.78;5.15;;;;;;;25.69;48.40;98711.19;5132265;27;20039;-95
2022/07/16 06:16:48;;;;;;;7.82;5.10;;;;;;;25.64;48.96;98726.25;5127988;27;20516;-94
2022/07/16 06:19:13;;;;;;;5.63;4.70;;;;;;;25.66;48.86;98703.31;5119707;27;20059;-95
2022/07/16 06:21:39;;;;;;;11.05;5.45;;;;;;;26.02;47.16;98700.97;5127035;27;20043;-95
2022/07/16 06:24:06;;;;;;;9.65;5.18;;;;;;;26.13;47.12;98698.13;5125747;27;20518;-94
2022/07/16 06:26:31;;;;;;;6.60;4.97;;;;;;;26.23;47.04;98711.75;5124262;27;20038;-95
2022/07/16 06:28:57;;;;;;;8.57;5.47;;;;;;;26.38;45.57;98699.41;5123192;27;20028;-96
2022/07/16 06:31:24;;;;;;;7.45;5.60;;;;;;;26.25;45.37;98696.13;5127383;27;20043;-95
2022/07/16 06:33:50;;;;;;;6.10;5.07;;;;;;;26.25;46.48;98715.22;5126982;27;20120;-95
2022/07/16 06:36:16;;;;;;;6.78;5.47;;;;;;;26.60;46.25;98730.16;5137897;27;20043;-95
2022/07/16 06:38:42;;;;;;;7.65;5.65;;;;;;;26.66;45.12;98728.72;5121310;27;20048;-94
2022/07/16 06:41:08;;;;;;;9.15;5.25;;;;;;;26.82;44.37;98726.25;5128940;27;20035;-96
2022/07/16 06:43:34;;;;;;;9.45;5.28;;;;;;;26.87;43.82;98709.44;5126286;27;20047;-95
2022/07/16 06:46:00;;;;;;;5.93;4.95;;;;;;;27.01;43.32;98701.66;5135675;27;20050;-95
2022/07/16 06:48:27;;;;;;;7.00;5.20;;;;;;;27.17;42.85;98722.00;5127027;27;20038;-94
2022/07/16 06:50:54;;;;;;;6.07;5.20;;;;;;;27.05;43.98;98702.25;5129456;27;20713;-96
2022/07/16 06:53:19;;;;;;;8.25;5.00;;;;;;;27.27;42.12;98728.34;5116035;27;20048;-95
2022/07/16 06:55:45;;;;;;;5.50;4.57;;;;;;;27.44;41.73;98718.53;5133771;27;20534;-94
2022/07/16 06:58:11;;;;;;;8.57;5.18;;;;;;;27.49;41.45;98705.25;5129561;27;20551;-94
2022/07/16 07:00:37;;;;;;;6.38;4.90;;;;;;;27.68;41.53;98723.44;5124606;27;20096;-96
2022/07/16 07:03:03;;;;;;;6.88;5.07;;;;;;;27.73;41.36;98714.78;5124758;27;20066;-93
2022/07/16 07:05:30;;;;;;;8.88;5.10;;;;;;;27.77;40.22;98711.59;5125770;27;20091;-94
2022/07/16 07:07:56;;;;;;;6.70;4.90;;;;;;;28.01;40.60;98719.25;5124295;27;20362;-94
2022/07/16 07:10:21;;;;;;;7.22;5.10;;;;;;;27.99;40.88;98734.06;5127942;27;20118;-94
2022/07/16 07:12:47;;;;;;;6.57;5.25;;;;;;;28.08;41.12;98730.41;5126763;27;20051;-95
2022/07/16 07:15:13;;;;;;;6.78;5.30;;;;;;;28.06;41.80;98730.59;5130880;27;20365;-96
2022/07/16 07:17:39;;;;;;;6.35;4.97;;;;;;;28.07;41.89;98709.56;5119300;27;20464;-95
2022/07/16 07:20:07;;;;;;;8.18;5.53;;;;;;;28.29;41.29;98729.28;5129071;27;20054;-95
2022/07/16 07:22:34;;;;;;;6.70;5.13;;;;;;;28.47;41.05;98722.81;5120186;27;20040;-95
2022/07/16 07:25:00;;;;;;;6.57;4.80;;;;;;;28.48;40.84;98701.81;5126429;27;20042;-94
2022/07/16 07:27:26;;;;;;;6.60;4.97;;;;;;;28.73;40.85;98727.47;5129043;27;20540;-96
2022/07/16 07:29:51;;;;;;;6.57;5.30;;;;;;;28.74;40.37;98707.31;5136919;27;20035;-95
2022/07/16 07:32:17;;;;;;;8.27;5.30;;;;;;;28.80;39.88;98720.38;5124617;27;20048;-94
2022/07/16 07:34:43;;;;;;;5.85;5.22;;;;;;;28.77;39.35;98715.22;5116058;28;20044;-94
2022/07/16 07:37:09;;;;;;;6.18;5.38;;;;;;;28.89;39.74;98696.66;5115501;28;20039;-95
2022/07/16 07:39:37;;;;;;;5.90;5.30;;;;;;;28.67;39.17;98709.84;5114793;28;20134;-95
2022/07/16 07:42:03;;;;;;;7.47;5.25;;;;;;;28.94;39.64;98712.59;5115696;28;20050;-94
2022/07/16 07:44:29;;;;;;;6.82;4.88;;;;;;;29.14;39.14;98713.28;5115459;28;20092;-96
2022/07/16 07:46:56;;;;;;;6.10;5.10;;;;;;;29.16;39.30;98692.91;5119538;28;20043;-96
2022/07/16 07:49:22;;;;;;;7.18;4.85;;;;;;;29.28;39.00;98693.53;5124924;28;20043;-96
2022/07/16 07:51:48;;;;;;;8.25;5.25;;;;;;;29.60;38.69;98722.09;5121243;28;20388;-96
2022/07/16 07:54:14;;;;;;;7.53;5.40;;;;;;;29.66;38.24;98703.09;5129453;28;20043;-96
2022/07/16 07:56:41;;;;;;;8.55;5.15;;;;;;;29.54;38.30;98682.53;5148854;27;20047;-96
2022/07/16 07:59:08;;;;;;;7.88;5.05;;;;;;;29.20;38.61;98691.59;5147886;27;20417;-96
2022/07/16 08:01:34;;;;;;;7.95;5.03;;;;;;;29.45;38.92;98699.91;5128986;28;20069;-96
2022/07/16 08:03:59;;;;;;;6.10;4.90;;;;;;;29.72;38.22;98693.41;5133473;28;20373;-95
2022/07/16 08:06:25;;;;;;;5.65;4.80;;;;;;;30.18;37.33;98714.97;5130489;28;20051;-95
2022/07/16 08:08:51;;;;;;;7.18;4.70;;;;;;;30.30;36.14;98697.19;5136026;27;20035;-96
2022/07/16 08:11:17;;;;;;;14.80;4.97;;;;;;;30.38;36.47;98686.19;5120179;28;20050;-95
2022/07/16 08:13:45;;;;;;;7.70;4.95;;;;;;;30.61;36.81;98685.53;5131264;28;20043;-94
2022/07/16 08:16:11;;;;;;;5.68;4.93;;;;;;;30.82;35.82;98685.03;5137768;27;20472;-92
2022/07/16 08:18:37;;;;;;;7.25;4.90;;;;;;;30.97;34.99;98688.81;5137619;27;20519;-94
2022/07/16 08:21:03;;;;;;;5.88;4.93;;;;;;;30.29;36.07;98682.59;5138960;27;20035;-96
2022/07/16 08:26:30;;;;;;;8.52;4.90;;;;;;;30.31;36.60;98701.63;5184051;27;20466;-95
2022/07/16 08:28:56;;;;;;;7.30;4.80;;;;;;;30.60;36.33;98694.78;5139398;27;20046;-94
2022/07/16 08:31:22;;;;;;;6.95;4.80;;;;;;;30.81;35.25;98710.75;5158427;27;20079;-95
2022/07/16 08:33:48;;;;;;;8.95;5.35;;;;;;;30.89;35.80;98683.31;5141924;27;20055;-95
2022/07/16 08:36:14;;;;;;;7.55;5.15;;;;;;;30.95;35.20;98684.50;5152827;27;20047;-96
2022/07/16 08:38:40;;;;;;;7.32;5.25;;;;;;;30.96;34.82;98687.09;5156708;27;20108;-95
2022/07/16 08:41:06;;;;;;;6.07;4.82;;;;;;;31.17;34.59;98686.53;5139367;27;20035;-95
2022/07/16 08:43:38;;;;;;;5.00;4.50;;;;;;;31.35;34.43;98688.22;5152715;27;20039;-95
2022/07/16 08:46:07;;;;;;;7.53;4.70;;;;;;;31.18;35.53;98677.25;5163629;27;20114;-93
2022/07/16 08:48:37;;;;;;;6.53;4.85;;;;;;;31.25;34.10;98689.28;5146164;27;20103;-95
2022/07/16 08:51:08;;;;;;;9.88;5.10;;;;;;;31.42;34.81;98686.47;5145513;27;20047;-96
2022/07/16 08:53:34;;;;;;;6.85;4.75;;;;;;;31.40;34.16;98686.63;5154514;27;20035;-95
2022/07/16 08:56:01;;;;;;;5.95;4.40;;;;;;;31.66;33.07;98685.53;5162825;27;20043;-93
2022/07/16 08:58:30;;;;;;;6.72;4.93;;;;;;;31.80;32.58;98683.94;5150521;27;20091;-95
2022/07/16 09:00:58;;;;;;;7.80;4.63;;;;;;;31.87;32.39;98687.66;5148987;27;20062;-94
2022/07/16 09:03:24;;;;;;;8.40;4.55;;;;;;;31.50;31.24;98679.06;5152542;27;20065;-92
2022/07/16 09:05:50;;;;;;;4.65;4.13;;;;;;;31.44;31.08;98690.75;5160184;27;20049;-95
2022/07/16 09:08:17;;;;;;;5.80;4.50;;;;;;;31.66;31.32;98686.41;5154071;27;20050;-94
2022/07/16 09:10:43;;;;;;;5.05;4.55;;;;;;;31.80;31.69;98697.69;5151568;27;20489;-94
2022/07/16 09:13:10;;;;;;;5.88;4.70;;;;;;;31.48;31.57;98681.13;5141438;27;20469;-95
2022/07/16 09:15:38;;;;;;;7.38;4.60;;;;;;;31.58;32.07;98677.34;5140949;27;20027;-96
2022/07/16 09:18:16;;;;;;;5.43;4.50;;;;;;;32.07;30.20;98683.44;5158645;27;20042;-94
2022/07/16 09:20:45;;;;;;;6.63;4.40;;;;;;;32.23;29.89;98667.91;5151357;27;20066;-95
2022/07/16 09:23:17;;;;;;;5.07;4.05;;;;;;;32.47;30.00;98697.97;5149597;27;20059;-94
2022/07/16 09:25:47;;;;;;;6.93;4.65;;;;;;;32.63;30.07;98665.88;5142908;27;20070;-95
2022/07/16 09:28:13;;;;;;;5.10;4.47;;;;;;;32.67;29.18;98670.81;5154529;27;20069;-93
2022/07/16 09:30:42;;;;;;;9.60;5.25;;;;;;;33.04;29.47;98687.53;5160575;27;20042;-95
2022/07/16 09:33:15;;;;;;;7.57;4.43;;;;;;;32.95;29.10;98668.31;5157398;27;20130;-94
2022/07/16 09:35:42;;;;;;;6.07;4.32;;;;;;;33.11;29.19;98663.72;5145823;27;20035;-94
2022/07/16 09:38:09;;;;;;;6.70;4.38;;;;;;;33.33;28.57;98686.72;5144183;27;20441;-95
2022/07/16 09:40:37;;;;;;;7.22;4.50;;;;;;;33.18;29.35;98658.31;5137002;27;20070;-94
2022/07/16 09:43:17;;;;;;;6.55;4.30;;;;;;;33.34;28.71;98674.66;5137514;27;20396;-94
2022/07/16 09:45:46;;;;;;;4.93;4.00;;;;;;;33.47;28.33;98680.38;5135733;27;20393;-96
2022/07/16 09:48:21;;;;;;;5.38;4.20;;;;;;;33.64;28.04;98685.72;5131223;27;20048;-95
2022/07/16 09:50:47;;;;;;;7.78;4.28;;;;;;;33.55;28.31;98658.22;5135622;27;20051;-95
2022/07/16 09:53:14;;;;;;;5.05;4.47;;;;;;;33.55;28.00;98649.09;5138524;27;20039;-94
2022/07/16 09:55:54;;;;;;;7.10;4.60;;;;;;;33.35;27.73;98651.56;5141119;27;20092;-95
2022/07/16 09:58:20;;;;;;;5.45;4.10;;;;;;;33.28;27.70;98651.47;5136428;27;20051;-96
2022/07/16 10:00:45;;;;;;;5.93;4.45;;;;;;;33.17;28.20;98653.84;5129526;27;20114;-95
2022/07/16 10:03:12;;;;;;;7.10;4.63;;;;;;;33.52;27.60;98654.97;5142044;27;20058;-95
2022/07/16 10:05:40;;;;;;;5.72;4.63;;;;;;;33.32;27.01;98657.47;5134607;27;20130;-95
2022/07/16 10:08:06;;;;;;;6.00;5.00;;;;;;;33.30;28.12;98652.13;5129729;27;20071;-95
2022/07/16 10:10:36;;;;;;;6.55;4.82;;;;;;;33.24;27.31;98641.88;5134797;27;20036;-96
2022/07/16 10:13:02;;;;;;;5.50;4.47;;;;;;;33.18;28.04;98639.88;5139740;27;20122;-94
2022/07/16 10:15:28;;;;;;;8.15;4.78;;;;;;;33.53;28.04;98670.50;5134944;27;20039;-95
2022/07/16 10:17:54;;;;;;;5.80;5.03;;;;;;;33.38;27.60;98642.03;5142158;27;20031;-96
2022/07/16 10:20:20;;;;;;;6.05;5.05;;;;;;;33.69;27.24;98661.19;5135454;27;20035;-95
2022/07/16 10:22:51;;;;;;;7.20;5.25;;;;;;;32.92;27.24;98649.44;5145296;27;20086;-96
2022/07/16 10:25:19;;;;;;;5.32;4.82;;;;;;;33.39;28.10;98661.16;5136023;27;20047;-94
2022/07/16 10:27:45;;;;;;;5.50;4.88;;;;;;;33.38;26.78;98653.94;5119749;28;20047;-95
2022/07/16 10:30:18;;;;;;;6.35;5.30;;;;;;;33.04;27.64;98641.53;5125625;27;20048;-94
2022/07/16 10:33:12;;;;;;;5.90;5.30;;;;;;;33.41;28.61;98672.00;5136672;27;20093;-94
2022/07/16 10:35:44;;;;;;;7.50;6.10;;;;;;;33.20;27.36;98647.94;5130222;27;20110;-95
2022/07/16 10:38:13;;;;;;;6.03;5.43;;;;;;;33.19;26.88;98638.84;5147787;27;20043;-95
2022/07/16 10:40:41;;;;;;;6.18;4.95;;;;;;;33.52;28.27;98661.34;5131273;27;20064;-93
2022/07/16 10:43:11;;;;;;;;;;;;;;;33.86;27.69;98664.56;5134696;27;20038;-94
2022/07/16 10:45:54;;;;;;;5.82;5.20;;;;;;;33.97;27.30;98653.88;5129077;27;19919;-93
2022/07/16 10:48:21;;;;;;;7.32;5.38;;;;;;;34.10;27.00;98658.69;5137453;27;20427;-94
2022/07/16 10:51:10;;;;;;;7.55;5.35;;;;;;;34.32;26.91;98655.97;5133420;27;20507;-94
2022/07/16 10:54:21;;;;;;;5.85;5.05;;;;;;;34.24;26.70;98634.88;5129062;27;20114;-94
2022/07/16 10:56:49;;;;;;;5.40;4.90;;;;;;;34.37;26.70;98631.38;5071092;28;20124;-91
2022/07/16 10:59:17;;;;;;;7.07;5.50;;;;;;;34.17;27.17;98628.44;5076807;28;20045;-94
2022/07/16 11:01:45;;;;;;;;;;;;;;;34.49;28.22;98654.66;5077886;28;20047;-95
2022/07/16 11:04:12;;;;;;;6.95;5.60;;;;;;;34.45;27.84;98630.41;5058135;28;19991;-95
2022/07/16 11:06:39;;;;;;;6.53;5.90;;;;;;;34.51;27.29;98630.47;5072198;28;20422;-95
2022/07/16 11:09:06;;;;;;;6.60;5.70;;;;;;;34.64;27.51;98637.19;5072496;28;20421;-95
2022/07/16 11:11:33;;;;;;;6.53;5.32;;;;;;;34.52;27.00;98618.34;5075992;28;20106;-95
2022/07/16 11:14:01;;;;;;;5.90;5.30;;;;;;;33.54;27.69;98617.88;5064565;28;20045;-94
2022/07/16 11:16:27;;;;;;;;;;;;;;;33.89;28.49;98648.47;5061827;28;20140;-96
2022/07/16 11:18:53;;;;;;;6.85;5.53;;;;;;;34.23;27.58;98635.94;5075691;28;19920;-96
2022/07/16 11:21:18;;;;;;;6.25;5.65;;;;;;;34.48;26.82;98630.00;5068014;28;20098;-93
2022/07/16 11:23:48;;;;;;;8.15;5.70;;;;;;;34.54;27.12;98612.63;5063206;28;20044;-93
2022/07/16 11:26:15;;;;;;;6.68;5.80;;;;;;;34.54;26.65;98607.13;5065187;28;20045;-95
2022/07/16 11:28:50;;;;;;;10.32;6.18;;;;;;;34.52;26.92;98618.34;5075568;28;20131;-94
2022/07/16 11:31:24;;;;;;;6.53;5.55;;;;;;;34.50;26.78;98606.66;5078377;28;20045;-95
2022/07/16 11:33:52;;;;;;;7.40;5.75;;;;;;;34.19;27.33;98612.53;5126235;28;20044;-95
2022/07/16 11:36:19;;;;;;;6.10;5.50;;;;;;;34.51;26.68;98611.13;5122535;28;20036;-96
2022/07/16 11:38:46;;;;;;;7.88;5.82;;;;;;;34.74;27.17;98599.88;5123128;28;20051;-95
2022/07/16 11:41:13;;;;;;;8.18;5.63;;;;;;;34.80;26.77;98603.72;5134659;27;20036;-95